sensor_id;sensor_type;location;lat;lon;timestamp;temperature;humidity
49829;DHT22;35723;51.194;5.112;2023-03-21T00:00:04;12.20;99.90
49829;DHT22;35723;51.194;5.112;2023-03-21T00:02:31;12.20;99.90
49829;DHT22;35723;51.194;5.112;2023-03-21T00:04:57;12.20;99.90
49829;DHT22;35723;51.194;5.112;2023-03-21T00:07:23;12.20;99.90
49829;DHT22;35723;51.194;5.112;2023-03-21T00:09:49;12.30;99.90
49829;DHT22;35723;51.194;5.112;2023-03-21T00:12:14;12.20;99.90
49829;DHT22;35723;51.194;5.112;2023-03-21T00:14:41;12.10;99.90
49829;DHT22;35723;51.194;5.112;2023-03-21T00:17:07;12.20;99.90
49829;DHT22;35723;51.194;5.112;2023-03-21T00:19:35;12.30;99.90
49829;DHT22;35723;51.194;5.112;2023-03-21T00:22:03;12.30;99.90
49829;DHT22;35723;51.194;5.112;2023-03-21T00:24:29;12.30;99.90
49829;DHT22;35723;51.194;5.112;2023-03-21T00:26:55;12.30;99.90
49829;DHT22;35723;51.194;5.112;2023-03-21T00:29:21;12.20;99.90
49829;DHT22;35723;51.194;5.112;2023-03-21T00:31:46;12.20;99.90
49829;DHT22;35723;51.194;5.112;2023-03-21T00:34:12;12.20;99.90
49829;DHT22;35723;51.194;5.112;2023-03-21T00:36:38;12.30;99.90
49829;DHT22;35723;51.194;5.112;2023-03-21T00:39:03;12.20;99.90
49829;DHT22;35723;51.194;5.112;2023-03-21T00:41:30;12.20;99.90
49829;DHT22;35723;51.194;5.112;2023-03-21T00:43:56;12.20;99.90
49829;DHT22;35723;51.194;5.112;2023-03-21T00:46:22;12.20;99.90
49829;DHT22;35723;51.194;5.112;2023-03-21T00:48:47;12.20;99.90
49829;DHT22;35723;51.194;5.112;2023-03-21T00:51:19;12.30;99.90
49829;DHT22;35723;51.194;5.112;2023-03-21T00:53:56;12.20;99.90
49829;DHT22;35723;51.194;5.112;2023-03-21T00:56:22;12.20;99.90
49829;DHT22;35723;51.194;5.112;2023-03-21T00:58:47;12.30;99.90
49829;DHT22;35723;51.194;5.112;2023-03-21T01:01:13;12.20;99.90
49829;DHT22;35723;51.194;5.112;2023-03-21T01:03:39;12.20;99.90
49829;DHT22;35723;51.194;5.112;2023-03-21T01:06:16;12.30;99.90
49829;DHT22;35723;51.194;5.112;2023-03-21T01:08:44;12.20;99.90
49829;DHT22;35723;51.194;5.112;2023-03-21T01:11:14;12.30;99.90
49829;DHT22;35723;51.194;5.112;2023-03-21T01:13:40;12.20;99.90
49829;DHT22;35723;51.194;5.112;2023-03-21T01:16:07;12.30;99.90
49829;DHT22;35723;51.194;5.112;2023-03-21T01:18:35;12.30;99.90
49829;DHT22;35723;51.194;5.112;2023-03-21T01:21:04;12.20;99.90
49829;DHT22;35723;51.194;5.112;2023-03-21T01:23:30;12.20;99.90
49829;DHT22;35723;51.194;5.112;2023-03-21T01:25:57;12.30;99.90
49829;DHT22;35723;51.194;5.112;2023-03-21T01:28:26;12.20;99.90
49829;DHT22;35723;51.194;5.112;2023-03-21T01:30:52;12.20;99.90
49829;DHT22;35723;51.194;5.112;2023-03-21T01:33:19;12.20;99.90
49829;DHT22;35723;51.194;5.112;2023-03-21T01:35:45;12.30;99.90
49829;DHT22;35723;51.194;5.112;2023-03-21T01:38:12;12.20;99.90
49829;DHT22;35723;51.194;5.112;2023-03-21T01:40:38;12.20;99.90
49829;DHT22;35723;51.194;5.112;2023-03-21T01:43:26;12.20;99.90
49829;DHT22;35723;51.194;5.112;2023-03-21T01:46:11;12.30;99.90
49829;DHT22;35723;51.194;5.112;2023-03-21T01:48:47;12.30;99.90
49829;DHT22;35723;51.194;5.112;2023-03-21T01:51:14;12.20;99.90
49829;DHT22;35723;51.194;5.112;2023-03-21T01:53:40;12.20;99.90
49829;DHT22;35723;51.194;5.112;2023-03-21T01:56:23;12.20;99.90
49829;DHT22;35723;51.194;5.112;2023-03-21T01:58:52;12.30;99.90
49829;DHT22;35723;51.194;5.112;2023-03-21T02:01:22;12.20;99.90
49829;DHT22;35723;51.194;5.112;2023-03-21T02:03:49;12.20;99.90
49829;DHT22;35723;51.194;5.112;2023-03-21T02:06:28;12.20;99.90
49829;DHT22;35723;51.194;5.112;2023-03-21T02:08:58;12.20;99.90
49829;DHT22;35723;51.194;5.112;2023-03-21T02:11:26;12.20;99.90
49829;DHT22;35723;51.194;5.112;2023-03-21T02:13:54;12.20;99.90
49829;DHT22;35723;51.194;5.112;2023-03-21T02:21:38;12.20;99.90
49829;DHT22;35723;51.194;5.112;2023-03-21T02:30:19;12.10;99.90
49829;DHT22;35723;51.194;5.112;2023-03-21T02:37:37;12.10;99.90
49829;DHT22;35723;51.194;5.112;2023-03-21T02:45:50;12.10;99.90
49829;DHT22;35723;51.194;5.112;2023-03-21T02:48:36;12.20;99.90
49829;DHT22;35723;51.194;5.112;2023-03-21T02:51:04;12.20;99.90
49829;DHT22;35723;51.194;5.112;2023-03-21T02:53:36;12.10;99.90
49829;DHT22;35723;51.194;5.112;2023-03-21T02:56:04;12.10;99.90
49829;DHT22;35723;51.194;5.112;2023-03-21T02:58:35;12.10;99.90
49829;DHT22;35723;51.194;5.112;2023-03-21T03:01:02;12.10;99.90
49829;DHT22;35723;51.194;5.112;2023-03-21T03:03:28;12.10;99.90
49829;DHT22;35723;51.194;5.112;2023-03-21T03:05:56;12.10;99.90
49829;DHT22;35723;51.194;5.112;2023-03-21T03:11:23;12.10;99.90
49829;DHT22;35723;51.194;5.112;2023-03-21T03:19:01;12.10;99.90
49829;DHT22;35723;51.194;5.112;2023-03-21T03:21:38;12.20;99.90
49829;DHT22;35723;51.194;5.112;2023-03-21T03:24:14;12.20;99.90
49829;DHT22;35723;51.194;5.112;2023-03-21T03:29:15;12.00;99.90
49829;DHT22;35723;51.194;5.112;2023-03-21T03:31:59;12.00;99.90
49829;DHT22;35723;51.194;5.112;2023-03-21T03:34:30;12.00;99.90
49829;DHT22;35723;51.194;5.112;2023-03-21T03:37:01;12.10;99.90
49829;DHT22;35723;51.194;5.112;2023-03-21T03:42:56;12.10;99.90
49829;DHT22;35723;51.194;5.112;2023-03-21T03:45:29;12.10;99.90
49829;DHT22;35723;51.194;5.112;2023-03-21T03:48:06;12.10;99.90
49829;DHT22;35723;51.194;5.112;2023-03-21T03:50:48;12.00;99.90
49829;DHT22;35723;51.194;5.112;2023-03-21T03:53:41;12.00;99.90
49829;DHT22;35723;51.194;5.112;2023-03-21T03:56:06;12.00;99.90
49829;DHT22;35723;51.194;5.112;2023-03-21T03:58:34;12.10;99.90
49829;DHT22;35723;51.194;5.112;2023-03-21T04:01:02;12.10;99.90
49829;DHT22;35723;51.194;5.112;2023-03-21T04:03:28;12.20;99.90
49829;DHT22;35723;51.194;5.112;2023-03-21T04:05:54;12.00;99.90
49829;DHT22;35723;51.194;5.112;2023-03-21T04:08:20;12.10;99.90
49829;DHT22;35723;51.194;5.112;2023-03-21T04:10:47;12.00;99.90
49829;DHT22;35723;51.194;5.112;2023-03-21T04:13:13;12.00;99.90
49829;DHT22;35723;51.194;5.112;2023-03-21T04:15:39;12.00;99.90
49829;DHT22;35723;51.194;5.112;2023-03-21T04:18:05;12.00;99.90
49829;DHT22;35723;51.194;5.112;2023-03-21T04:20:30;12.10;99.90
49829;DHT22;35723;51.194;5.112;2023-03-21T04:22:56;12.10;99.90
49829;DHT22;35723;51.194;5.112;2023-03-21T04:25:22;12.10;99.90
49829;DHT22;35723;51.194;5.112;2023-03-21T04:27:48;12.10;99.90
49829;DHT22;35723;51.194;5.112;2023-03-21T04:30:14;12.20;99.90
49829;DHT22;35723;51.194;5.112;2023-03-21T04:32:40;12.20;99.90
49829;DHT22;35723;51.194;5.112;2023-03-21T04:35:08;12.10;99.90
49829;DHT22;35723;51.194;5.112;2023-03-21T04:37:34;12.10;99.90
49829;DHT22;35723;51.194;5.112;2023-03-21T04:40:00;12.20;99.90
49829;DHT22;35723;51.194;5.112;2023-03-21T04:42:31;12.10;99.90
49829;DHT22;35723;51.194;5.112;2023-03-21T04:44:57;12.10;99.90
49829;DHT22;35723;51.194;5.112;2023-03-21T04:47:23;12.20;99.90
49829;DHT22;35723;51.194;5.112;2023-03-21T04:49:49;12.20;99.90
49829;DHT22;35723;51.194;5.112;2023-03-21T04:52:16;12.20;99.90
49829;DHT22;35723;51.194;5.112;2023-03-21T04:54:42;12.20;99.90
49829;DHT22;35723;51.194;5.112;2023-03-21T04:57:08;12.20;99.90
49829;DHT22;35723;51.194;5.112;2023-03-21T04:59:34;12.20;99.90
49829;DHT22;35723;51.194;5.112;2023-03-21T05:01:59;12.30;99.90
49829;DHT22;35723;51.194;5.112;2023-03-21T05:04:26;12.30;99.90
49829;DHT22;35723;51.194;5.112;2023-03-21T05:06:52;12.20;99.90
49829;DHT22;35723;51.194;5.112;2023-03-21T05:09:19;12.20;99.90
49829;DHT22;35723;51.194;5.112;2023-03-21T05:11:46;12.20;99.90
49829;DHT22;35723;51.194;5.112;2023-03-21T05:14:20;12.20;99.90
49829;DHT22;35723;51.194;5.112;2023-03-21T05:16:46;12.30;99.90
49829;DHT22;35723;51.194;5.112;2023-03-21T05:19:20;12.30;99.90
49829;DHT22;35723;51.194;5.112;2023-03-21T05:21:47;12.30;99.90
49829;DHT22;35723;51.194;5.112;2023-03-21T05:24:18;12.30;99.90
49829;DHT22;35723;51.194;5.112;2023-03-21T05:26:45;12.30;99.90
49829;DHT22;35723;51.194;5.112;2023-03-21T05:29:20;12.30;99.90
49829;DHT22;35723;51.194;5.112;2023-03-21T05:31:46;12.20;99.90
49829;DHT22;35723;51.194;5.112;2023-03-21T05:34:12;12.30;99.90
49829;DHT22;35723;51.194;5.112;2023-03-21T05:36:38;12.30;99.90
49829;DHT22;35723;51.194;5.112;2023-03-21T05:39:04;12.30;99.90
49829;DHT22;35723;51.194;5.112;2023-03-21T05:41:30;12.30;99.90
49829;DHT22;35723;51.194;5.112;2023-03-21T05:43:56;12.30;99.90
49829;DHT22;35723;51.194;5.112;2023-03-21T05:46:21;12.30;99.90
49829;DHT22;35723;51.194;5.112;2023-03-21T05:48:47;12.30;99.90
49829;DHT22;35723;51.194;5.112;2023-03-21T05:51:13;12.10;99.90
49829;DHT22;35723;51.194;5.112;2023-03-21T05:53:39;12.10;99.90
49829;DHT22;35723;51.194;5.112;2023-03-21T05:56:06;12.00;99.90
49829;DHT22;35723;51.194;5.112;2023-03-21T05:58:31;12.10;99.90
49829;DHT22;35723;51.194;5.112;2023-03-21T06:00:57;12.00;99.90
49829;DHT22;35723;51.194;5.112;2023-03-21T06:03:23;12.20;99.90
49829;DHT22;35723;51.194;5.112;2023-03-21T06:05:48;12.20;99.90
49829;DHT22;35723;51.194;5.112;2023-03-21T06:08:14;12.10;99.90
49829;DHT22;35723;51.194;5.112;2023-03-21T06:10:40;12.00;99.90
49829;DHT22;35723;51.194;5.112;2023-03-21T06:13:05;12.00;99.90
49829;DHT22;35723;51.194;5.112;2023-03-21T06:15:31;12.10;99.90
49829;DHT22;35723;51.194;5.112;2023-03-21T06:17:57;11.90;99.90
49829;DHT22;35723;51.194;5.112;2023-03-21T06:20:22;12.00;99.90
49829;DHT22;35723;51.194;5.112;2023-03-21T06:22:48;12.10;99.90
49829;DHT22;35723;51.194;5.112;2023-03-21T06:25:14;12.10;99.90
49829;DHT22;35723;51.194;5.112;2023-03-21T06:27:40;12.10;99.90
49829;DHT22;35723;51.194;5.112;2023-03-21T06:30:06;12.10;99.90
49829;DHT22;35723;51.194;5.112;2023-03-21T06:32:32;12.20;99.90
49829;DHT22;35723;51.194;5.112;2023-03-21T06:34:58;12.00;99.90
49829;DHT22;35723;51.194;5.112;2023-03-21T06:37:24;12.00;99.90
49829;DHT22;35723;51.194;5.112;2023-03-21T06:39:51;12.10;99.90
49829;DHT22;35723;51.194;5.112;2023-03-21T06:42:17;12.00;99.90
49829;DHT22;35723;51.194;5.112;2023-03-21T06:44:42;12.10;99.90
49829;DHT22;35723;51.194;5.112;2023-03-21T06:47:08;12.20;99.90
49829;DHT22;35723;51.194;5.112;2023-03-21T06:49:34;12.20;99.90
49829;DHT22;35723;51.194;5.112;2023-03-21T06:51:59;12.20;99.90
49829;DHT22;35723;51.194;5.112;2023-03-21T06:54:25;12.20;99.90
49829;DHT22;35723;51.194;5.112;2023-03-21T06:56:51;12.00;99.90
49829;DHT22;35723;51.194;5.112;2023-03-21T06:59:17;12.00;99.90
49829;DHT22;35723;51.194;5.112;2023-03-21T07:01:42;12.00;99.90
49829;DHT22;35723;51.194;5.112;2023-03-21T07:04:09;12.10;99.90
49829;DHT22;35723;51.194;5.112;2023-03-21T07:06:34;12.00;99.90
49829;DHT22;35723;51.194;5.112;2023-03-21T07:09:01;11.90;99.90
49829;DHT22;35723;51.194;5.112;2023-03-21T07:11:28;11.80;99.90
49829;DHT22;35723;51.194;5.112;2023-03-21T07:13:54;11.90;99.90
49829;DHT22;35723;51.194;5.112;2023-03-21T07:16:20;12.00;99.90
49829;DHT22;35723;51.194;5.112;2023-03-21T07:18:46;12.10;99.90
49829;DHT22;35723;51.194;5.112;2023-03-21T07:21:12;12.10;99.90
49829;DHT22;35723;51.194;5.112;2023-03-21T07:23:38;12.10;99.90
49829;DHT22;35723;51.194;5.112;2023-03-21T07:26:04;12.10;99.90
49829;DHT22;35723;51.194;5.112;2023-03-21T07:28:30;12.00;99.90
49829;DHT22;35723;51.194;5.112;2023-03-21T07:30:58;12.10;99.90
49829;DHT22;35723;51.194;5.112;2023-03-21T07:33:25;12.10;99.90
49829;DHT22;35723;51.194;5.112;2023-03-21T07:35:52;12.10;99.90
49829;DHT22;35723;51.194;5.112;2023-03-21T07:38:19;12.00;99.90
49829;DHT22;35723;51.194;5.112;2023-03-21T07:40:46;12.00;99.90
49829;DHT22;35723;51.194;5.112;2023-03-21T07:43:13;12.10;99.90
49829;DHT22;35723;51.194;5.112;2023-03-21T07:45:39;12.10;99.90
49829;DHT22;35723;51.194;5.112;2023-03-21T07:48:04;12.10;99.90
49829;DHT22;35723;51.194;5.112;2023-03-21T07:50:30;12.20;99.90
49829;DHT22;35723;51.194;5.112;2023-03-21T07:52:56;12.20;99.90
49829;DHT22;35723;51.194;5.112;2023-03-21T07:55:21;12.10;99.90
49829;DHT22;35723;51.194;5.112;2023-03-21T07:57:50;12.10;99.90
49829;DHT22;35723;51.194;5.112;2023-03-21T08:00:20;12.10;99.90
49829;DHT22;35723;51.194;5.112;2023-03-21T08:02:51;12.10;99.90
49829;DHT22;35723;51.194;5.112;2023-03-21T08:05:20;12.20;99.90
49829;DHT22;35723;51.194;5.112;2023-03-21T08:07:46;12.20;99.90
49829;DHT22;35723;51.194;5.112;2023-03-21T08:10:12;12.20;99.90
49829;DHT22;35723;51.194;5.112;2023-03-21T08:12:37;12.10;99.90
49829;DHT22;35723;51.194;5.112;2023-03-21T08:15:04;12.10;99.90
49829;DHT22;35723;51.194;5.112;2023-03-21T08:17:29;12.10;99.90
49829;DHT22;35723;51.194;5.112;2023-03-21T08:19:55;12.10;99.90
49829;DHT22;35723;51.194;5.112;2023-03-21T08:22:21;12.10;99.90
49829;DHT22;35723;51.194;5.112;2023-03-21T08:24:46;12.20;99.90
49829;DHT22;35723;51.194;5.112;2023-03-21T08:27:12;12.20;99.90
49829;DHT22;35723;51.194;5.112;2023-03-21T08:29:38;12.20;99.90
49829;DHT22;35723;51.194;5.112;2023-03-21T08:32:06;12.20;99.90
49829;DHT22;35723;51.194;5.112;2023-03-21T08:34:32;12.20;99.90
49829;DHT22;35723;51.194;5.112;2023-03-21T08:36:58;12.20;99.90
49829;DHT22;35723;51.194;5.112;2023-03-21T08:39:23;12.20;99.90
49829;DHT22;35723;51.194;5.112;2023-03-21T08:41:49;12.30;99.90
49829;DHT22;35723;51.194;5.112;2023-03-21T08:44:15;12.30;99.90
49829;DHT22;35723;51.194;5.112;2023-03-21T08:46:41;12.30;99.90
49829;DHT22;35723;51.194;5.112;2023-03-21T08:49:07;12.30;99.90
49829;DHT22;35723;51.194;5.112;2023-03-21T08:51:32;12.40;99.90
49829;DHT22;35723;51.194;5.112;2023-03-21T08:53:58;12.40;99.90
49829;DHT22;35723;51.194;5.112;2023-03-21T08:56:24;12.40;99.90
49829;DHT22;35723;51.194;5.112;2023-03-21T08:58:50;12.40;99.90
49829;DHT22;35723;51.194;5.112;2023-03-21T09:01:16;12.50;99.90
49829;DHT22;35723;51.194;5.112;2023-03-21T09:03:42;12.50;99.90
49829;DHT22;35723;51.194;5.112;2023-03-21T09:06:09;12.50;99.90
49829;DHT22;35723;51.194;5.112;2023-03-21T09:08:36;12.60;99.90
49829;DHT22;35723;51.194;5.112;2023-03-21T09:11:02;12.50;99.90
49829;DHT22;35723;51.194;5.112;2023-03-21T09:13:27;12.50;99.90
49829;DHT22;35723;51.194;5.112;2023-03-21T09:15:54;12.60;99.90
49829;DHT22;35723;51.194;5.112;2023-03-21T09:18:19;12.60;99.90
49829;DHT22;35723;51.194;5.112;2023-03-21T09:20:46;12.60;99.90
49829;DHT22;35723;51.194;5.112;2023-03-21T09:23:13;12.60;99.90
49829;DHT22;35723;51.194;5.112;2023-03-21T09:25:40;12.60;99.90
49829;DHT22;35723;51.194;5.112;2023-03-21T09:28:06;12.60;99.90
49829;DHT22;35723;51.194;5.112;2023-03-21T09:30:34;12.60;99.90
49829;DHT22;35723;51.194;5.112;2023-03-21T09:33:01;12.60;99.90
49829;DHT22;35723;51.194;5.112;2023-03-21T09:35:28;12.60;99.90
49829;DHT22;35723;51.194;5.112;2023-03-21T09:37:54;12.60;99.90
49829;DHT22;35723;51.194;5.112;2023-03-21T09:40:52;12.70;99.90
49829;DHT22;35723;51.194;5.112;2023-03-21T09:49:02;12.80;99.90
49829;DHT22;35723;51.194;5.112;2023-03-21T09:51:51;12.80;99.90
49829;DHT22;35723;51.194;5.112;2023-03-21T09:54:26;12.90;99.90
49829;DHT22;35723;51.194;5.112;2023-03-21T09:56:55;12.70;99.90
49829;DHT22;35723;51.194;5.112;2023-03-21T09:59:35;12.60;99.90
49829;DHT22;35723;51.194;5.112;2023-03-21T10:04:41;12.60;99.90
49829;DHT22;35723;51.194;5.112;2023-03-21T10:07:12;12.60;99.90
49829;DHT22;35723;51.194;5.112;2023-03-21T10:09:44;12.70;99.90
49829;DHT22;35723;51.194;5.112;2023-03-21T10:12:20;12.70;99.90
49829;DHT22;35723;51.194;5.112;2023-03-21T10:14:49;12.70;99.90
49829;DHT22;35723;51.194;5.112;2023-03-21T10:17:50;12.70;99.90
49829;DHT22;35723;51.194;5.112;2023-03-21T10:22:44;12.80;99.90
49829;DHT22;35723;51.194;5.112;2023-03-21T10:25:35;12.90;99.90
49829;DHT22;35723;51.194;5.112;2023-03-21T10:28:00;13.00;99.90
49829;DHT22;35723;51.194;5.112;2023-03-21T10:30:40;13.10;99.90
49829;DHT22;35723;51.194;5.112;2023-03-21T10:33:10;13.20;99.90
49829;DHT22;35723;51.194;5.112;2023-03-21T10:35:38;13.20;99.90
49829;DHT22;35723;51.194;5.112;2023-03-21T10:38:05;13.20;99.90
49829;DHT22;35723;51.194;5.112;2023-03-21T10:40:32;13.20;99.90
49829;DHT22;35723;51.194;5.112;2023-03-21T10:43:16;13.30;99.90
49829;DHT22;35723;51.194;5.112;2023-03-21T10:45:45;13.20;99.90
49829;DHT22;35723;51.194;5.112;2023-03-21T10:48:11;13.20;99.90
49829;DHT22;35723;51.194;5.112;2023-03-21T10:50:37;13.10;99.90
49829;DHT22;35723;51.194;5.112;2023-03-21T10:53:02;13.20;99.90
49829;DHT22;35723;51.194;5.112;2023-03-21T10:55:39;13.20;99.90
49829;DHT22;35723;51.194;5.112;2023-03-21T10:58:08;13.30;99.90
49829;DHT22;35723;51.194;5.112;2023-03-21T11:00:40;13.30;99.90
49829;DHT22;35723;51.194;5.112;2023-03-21T11:03:30;13.30;99.90
49829;DHT22;35723;51.194;5.112;2023-03-21T11:08:49;13.30;99.90
49829;DHT22;35723;51.194;5.112;2023-03-21T11:11:23;13.20;99.90
49829;DHT22;35723;51.194;5.112;2023-03-21T11:13:56;13.20;99.90
49829;DHT22;35723;51.194;5.112;2023-03-21T11:16:56;13.30;99.90
49829;DHT22;35723;51.194;5.112;2023-03-21T11:19:34;13.50;99.90
49829;DHT22;35723;51.194;5.112;2023-03-21T11:22:05;13.50;99.90
49829;DHT22;35723;51.194;5.112;2023-03-21T11:24:33;13.40;99.90
49829;DHT22;35723;51.194;5.112;2023-03-21T11:27:05;13.60;99.90
49829;DHT22;35723;51.194;5.112;2023-03-21T11:29:37;13.60;99.90
49829;DHT22;35723;51.194;5.112;2023-03-21T11:34:49;13.80;99.90
49829;DHT22;35723;51.194;5.112;2023-03-21T11:37:33;13.80;99.90
49829;DHT22;35723;51.194;5.112;2023-03-21T11:40:17;13.80;99.90
49829;DHT22;35723;51.194;5.112;2023-03-21T11:42:47;13.90;99.90
49829;DHT22;35723;51.194;5.112;2023-03-21T11:45:34;14.00;99.90
49829;DHT22;35723;51.194;5.112;2023-03-21T11:48:12;14.10;99.90
49829;DHT22;35723;51.194;5.112;2023-03-21T11:50:45;14.20;99.90
49829;DHT22;35723;51.194;5.112;2023-03-21T11:58:50;14.30;99.90
49829;DHT22;35723;51.194;5.112;2023-03-21T12:15:38;14.50;99.90
49829;DHT22;35723;51.194;5.112;2023-03-21T12:20:59;14.60;99.90
49829;DHT22;35723;51.194;5.112;2023-03-21T12:23:57;14.70;99.90
49829;DHT22;35723;51.194;5.112;2023-03-21T12:29:22;14.90;99.90
49829;DHT22;35723;51.194;5.112;2023-03-21T12:39:47;15.00;99.90
49829;DHT22;35723;51.194;5.112;2023-03-21T12:47:34;15.10;99.90
49829;DHT22;35723;51.194;5.112;2023-03-21T12:52:49;15.30;99.90
49829;DHT22;35723;51.194;5.112;2023-03-21T12:55:20;15.40;99.90
49829;DHT22;35723;51.194;5.112;2023-03-21T12:57:53;15.50;99.90
49829;DHT22;35723;51.194;5.112;2023-03-21T13:00:32;15.60;99.90
49829;DHT22;35723;51.194;5.112;2023-03-21T13:06:00;15.70;99.90
49829;DHT22;35723;51.194;5.112;2023-03-21T13:08:43;15.70;99.90
49829;DHT22;35723;51.194;5.112;2023-03-21T13:11:14;15.80;99.90
49829;DHT22;35723;51.194;5.112;2023-03-21T13:14:13;15.60;99.90
49829;DHT22;35723;51.194;5.112;2023-03-21T13:16:52;15.60;99.90
49829;DHT22;35723;51.194;5.112;2023-03-21T13:22:24;15.50;99.90
49829;DHT22;35723;51.194;5.112;2023-03-21T13:25:04;15.50;99.90
49829;DHT22;35723;51.194;5.112;2023-03-21T13:30:24;15.40;99.90
49829;DHT22;35723;51.194;5.112;2023-03-21T13:33:29;15.50;99.90
49829;DHT22;35723;51.194;5.112;2023-03-21T13:36:00;15.40;99.90
49829;DHT22;35723;51.194;5.112;2023-03-21T13:38:31;15.40;99.90
49829;DHT22;35723;51.194;5.112;2023-03-21T13:40:59;15.40;99.90
49829;DHT22;35723;51.194;5.112;2023-03-21T13:49:01;15.70;99.90
49829;DHT22;35723;51.194;5.112;2023-03-21T13:51:56;15.80;99.90
49829;DHT22;35723;51.194;5.112;2023-03-21T13:54:53;15.70;99.90
49829;DHT22;35723;51.194;5.112;2023-03-21T13:57:36;15.70;99.90
49829;DHT22;35723;51.194;5.112;2023-03-21T14:00:26;15.90;99.90
49829;DHT22;35723;51.194;5.112;2023-03-21T14:03:09;15.80;99.90
49829;DHT22;35723;51.194;5.112;2023-03-21T14:05:38;15.70;99.90
49829;DHT22;35723;51.194;5.112;2023-03-21T14:08:08;15.70;99.90
49829;DHT22;35723;51.194;5.112;2023-03-21T14:10:42;15.80;99.90
49829;DHT22;35723;51.194;5.112;2023-03-21T14:13:15;15.90;99.90
49829;DHT22;35723;51.194;5.112;2023-03-21T14:15:51;15.90;99.90
49829;DHT22;35723;51.194;5.112;2023-03-21T14:18:23;15.80;99.90
49829;DHT22;35723;51.194;5.112;2023-03-21T14:20:53;15.80;99.90
49829;DHT22;35723;51.194;5.112;2023-03-21T14:23:20;15.80;99.90
49829;DHT22;35723;51.194;5.112;2023-03-21T14:25:47;15.80;99.90
49829;DHT22;35723;51.194;5.112;2023-03-21T14:28:23;16.00;99.90
49829;DHT22;35723;51.194;5.112;2023-03-21T14:30:55;16.00;99.90
49829;DHT22;35723;51.194;5.112;2023-03-21T14:33:32;15.90;99.90
49829;DHT22;35723;51.194;5.112;2023-03-21T14:36:12;15.80;99.90
49829;DHT22;35723;51.194;5.112;2023-03-21T14:38:40;15.70;99.90
49829;DHT22;35723;51.194;5.112;2023-03-21T14:41:21;15.70;99.90
49829;DHT22;35723;51.194;5.112;2023-03-21T14:46:34;15.80;99.90
49829;DHT22;35723;51.194;5.112;2023-03-21T14:49:17;15.80;99.90
49829;DHT22;35723;51.194;5.112;2023-03-21T14:51:43;15.90;99.90
49829;DHT22;35723;51.194;5.112;2023-03-21T14:54:14;15.80;99.90
49829;DHT22;35723;51.194;5.112;2023-03-21T14:56:44;15.80;99.90
49829;DHT22;35723;51.194;5.112;2023-03-21T14:59:15;15.80;99.90
49829;DHT22;35723;51.194;5.112;2023-03-21T15:01:42;15.80;99.90
49829;DHT22;35723;51.194;5.112;2023-03-21T15:04:11;15.80;99.90
49829;DHT22;35723;51.194;5.112;2023-03-21T15:06:57;15.80;99.90
49829;DHT22;35723;51.194;5.112;2023-03-21T15:09:26;15.80;99.90
49829;DHT22;35723;51.194;5.112;2023-03-21T15:11:54;15.80;99.90
49829;DHT22;35723;51.194;5.112;2023-03-21T15:14:24;15.80;99.90
49829;DHT22;35723;51.194;5.112;2023-03-21T15:16:52;15.70;99.90
49829;DHT22;35723;51.194;5.112;2023-03-21T15:19:24;15.70;99.90
49829;DHT22;35723;51.194;5.112;2023-03-21T15:21:56;15.80;99.90
49829;DHT22;35723;51.194;5.112;2023-03-21T15:24:35;15.80;99.90
49829;DHT22;35723;51.194;5.112;2023-03-21T15:27:16;15.90;99.90
49829;DHT22;35723;51.194;5.112;2023-03-21T15:29:44;15.70;99.90
49829;DHT22;35723;51.194;5.112;2023-03-21T15:32:15;15.60;99.90
49829;DHT22;35723;51.194;5.112;2023-03-21T15:34:42;15.60;99.90
49829;DHT22;35723;51.194;5.112;2023-03-21T15:37:15;15.60;99.90
49829;DHT22;35723;51.194;5.112;2023-03-21T15:39:41;15.60;99.90
49829;DHT22;35723;51.194;5.112;2023-03-21T15:42:24;15.50;99.90
49829;DHT22;35723;51.194;5.112;2023-03-21T15:44:52;15.50;99.90
49829;DHT22;35723;51.194;5.112;2023-03-21T15:50:36;15.50;99.90
49829;DHT22;35723;51.194;5.112;2023-03-21T15:53:14;15.50;99.90
49829;DHT22;35723;51.194;5.112;2023-03-21T15:55:42;15.50;99.90
49829;DHT22;35723;51.194;5.112;2023-03-21T15:58:15;15.50;99.90
49829;DHT22;35723;51.194;5.112;2023-03-21T16:00:46;15.50;99.90
49829;DHT22;35723;51.194;5.112;2023-03-21T16:03:29;15.50;99.90
49829;DHT22;35723;51.194;5.112;2023-03-21T16:11:25;15.50;99.90
49829;DHT22;35723;51.194;5.112;2023-03-21T16:13:53;15.50;99.90
49829;DHT22;35723;51.194;5.112;2023-03-21T16:16:27;15.50;99.90
49829;DHT22;35723;51.194;5.112;2023-03-21T16:18:54;15.50;99.90
49829;DHT22;35723;51.194;5.112;2023-03-21T16:21:23;15.40;99.90
49829;DHT22;35723;51.194;5.112;2023-03-21T16:23:49;15.30;99.90
49829;DHT22;35723;51.194;5.112;2023-03-21T16:26:18;15.30;99.90
49829;DHT22;35723;51.194;5.112;2023-03-21T16:28:45;15.30;99.90
49829;DHT22;35723;51.194;5.112;2023-03-21T16:31:19;15.30;99.90
49829;DHT22;35723;51.194;5.112;2023-03-21T16:33:46;15.20;99.90
49829;DHT22;35723;51.194;5.112;2023-03-21T16:36:13;15.20;99.90
49829;DHT22;35723;51.194;5.112;2023-03-21T16:38:40;15.20;99.90
49829;DHT22;35723;51.194;5.112;2023-03-21T16:41:13;15.10;99.90
49829;DHT22;35723;51.194;5.112;2023-03-21T16:43:39;15.10;99.90
49829;DHT22;35723;51.194;5.112;2023-03-21T16:46:18;15.10;99.90
49829;DHT22;35723;51.194;5.112;2023-03-21T16:48:46;14.90;99.90
49829;DHT22;35723;51.194;5.112;2023-03-21T16:51:18;15.00;99.90
49829;DHT22;35723;51.194;5.112;2023-03-21T16:53:45;15.10;99.90
49829;DHT22;35723;51.194;5.112;2023-03-21T16:58:47;15.00;99.90
49829;DHT22;35723;51.194;5.112;2023-03-21T17:01:19;15.00;99.90
49829;DHT22;35723;51.194;5.112;2023-03-21T17:03:46;15.00;99.90
49829;DHT22;35723;51.194;5.112;2023-03-21T17:06:14;14.90;99.90
49829;DHT22;35723;51.194;5.112;2023-03-21T17:08:39;14.90;99.90
49829;DHT22;35723;51.194;5.112;2023-03-21T17:11:11;14.80;99.90
49829;DHT22;35723;51.194;5.112;2023-03-21T17:13:37;14.90;99.90
49829;DHT22;35723;51.194;5.112;2023-03-21T17:16:03;14.80;99.90
49829;DHT22;35723;51.194;5.112;2023-03-21T17:18:30;14.70;99.90
49829;DHT22;35723;51.194;5.112;2023-03-21T17:20:56;14.70;99.90
49829;DHT22;35723;51.194;5.112;2023-03-21T17:23:22;14.80;99.90
49829;DHT22;35723;51.194;5.112;2023-03-21T17:25:47;14.70;99.90
49829;DHT22;35723;51.194;5.112;2023-03-21T17:28:13;14.60;99.90
49829;DHT22;35723;51.194;5.112;2023-03-21T17:30:39;14.60;99.90
49829;DHT22;35723;51.194;5.112;2023-03-21T17:33:04;14.60;99.90
49829;DHT22;35723;51.194;5.112;2023-03-21T17:35:30;14.50;99.90
49829;DHT22;35723;51.194;5.112;2023-03-21T17:37:56;14.40;99.90
49829;DHT22;35723;51.194;5.112;2023-03-21T17:40:28;14.40;99.90
49829;DHT22;35723;51.194;5.112;2023-03-21T17:42:54;14.40;99.90
49829;DHT22;35723;51.194;5.112;2023-03-21T17:45:20;14.40;99.90
49829;DHT22;35723;51.194;5.112;2023-03-21T17:47:47;14.40;99.90